Time;durP1;ratioP1;P1;durP2;ratioP2;P2;SDS_P1;SDS_P2;PMS_P1;PMS_P2;Temp;Humidity;BMP_temperature;BMP_pressure;BME280_temperature;BME280_humidity;BME280_pressure;Samples;Min_cycle;Max_cycle;Signal;HPM_P1;HPM_P2
2022/09/11 00:00:27;;;;;;;;;;;;;;;17.75;77.99;100857.56;4987928;28;20023;-70
2022/09/11 00:02:53;;;;;;;;;;;;;;;17.70;78.48;100854.44;4986602;28;20374;-70
2022/09/11 00:05:21;;;;;;;;;;;;;;;17.49;79.72;100848.97;4990470;28;19961;-70
2022/09/11 00:07:47;;;;;;;;;;;;;;;17.65;79.47;100851.31;4994456;28;19972;-70
2022/09/11 00:10:13;;;;;;;;;;;;;;;17.41;81.11;100861.97;5004095;28;20496;-70
2022/09/11 00:12:40;;;;;;;;;;;;;;;17.22;82.03;100859.91;4998200;28;19922;-69
2022/09/11 00:15:06;;;;;;;;;;;;;;;17.51;80.79;100853.19;5000753;28;19921;-69
2022/09/11 00:17:32;;;;;;;;;;;;;;;17.52;80.42;100854.88;5005981;28;20345;-69
2022/09/11 00:20:00;;;;;;;;;;;;;;;17.45;80.46;100856.31;5007143;28;19933;-69
2022/09/11 00:22:27;;;;;;;;;;;;;;;17.30;81.18;100851.38;5007124;28;19995;-69
2022/09/11 00:24:54;;;;;;;;;;;;;;;17.30;81.50;100865.47;5006952;28;20027;-70
2022/09/11 00:27:20;;;;;;;;;;;;;;;17.59;80.25;100868.53;5008864;28;19929;-69
2022/09/11 00:29:46;;;;;;;;;;;;;;;17.64;79.59;100869.00;5007392;28;19964;-70
2022/09/11 00:32:14;;;;;;;;;;;;;;;17.80;79.17;100864.19;5008886;28;19949;-70
2022/09/11 00:34:40;;;;;;;;;;;;;;;18.04;77.78;100869.31;5008064;28;25199;-70
2022/09/11 00:37:06;;;;;;;;;;;;;;;17.92;78.21;100871.16;5007215;28;19933;-70
2022/09/11 00:39:34;;;;;;;;;;;;;;;17.59;79.33;100865.88;5006880;28;20029;-70
2022/09/11 00:42:01;;;;;;;;;;;;;;;17.68;79.45;100872.25;5006823;28;19949;-70
2022/09/11 00:44:45;;;;;;;;;;;;;;;17.74;79.03;100867.31;5006969;28;20365;-70
2022/09/11 00:47:16;;;;;;;;;;;;;;;18.00;77.63;100871.38;5006613;28;19926;-70
2022/09/11 00:49:44;;;;;;;;;;;;;;;18.13;76.88;100875.72;5006561;28;19921;-69
2022/09/11 00:52:14;;;;;;;;;;;;;;;17.90;76.83;100873.09;5008844;28;19925;-69
2022/09/11 00:54:45;;;;;;;;;;;;;;;17.93;76.97;100883.44;5007936;28;19921;-69
2022/09/11 00:57:11;;;;;;;;;;;;;;;17.58;78.98;100874.81;5006435;28;19921;-69
2022/09/11 00:59:39;;;;;;;;;;;;;;;17.58;79.06;100876.63;5006822;28;20389;-70
2022/09/11 01:02:08;;;;;;;;;;;;;;;17.53;78.95;100877.78;5007698;28;19960;-70
2022/09/11 01:04:34;;;;;;;;;;;;;;;17.59;78.97;100880.97;5005765;28;19964;-70
2022/09/11 01:07:01;;;;;;;;;;;;;;;17.46;79.51;100876.56;5006803;28;19983;-70
2022/09/11 01:09:29;;;;;;;;;;;;;;;17.23;80.31;100872.22;5007409;28;20112;-70
2022/09/11 01:12:00;;;;;;;;;;;;;;;17.36;79.82;100875.63;5007178;28;19921;-70
2022/09/11 01:14:32;;;;;;;;;;;;;;;17.47;79.05;100877.44;5005970;28;19921;-70
2022/09/11 01:17:06;;;;;;;;;;;;;;;17.42;79.24;100868.97;5005531;28;20003;-70
2022/09/11 01:19:39;;;;;;;;;;;;;;;17.55;78.31;100880.31;5005235;28;19940;-70
2022/09/11 01:22:20;;;;;;;;;;;;;;;17.49;79.34;100876.34;5006997;28;19925;-70
2022/09/11 01:25:01;;;;;;;;;;;;;;;17.60;78.39;100877.31;5005927;28;20328;-70
2022/09/11 01:27:46;;;;;;;;;;;;;;;17.10;80.26;100892.69;5005691;28;19992;-70
2022/09/11 01:30:13;;;;;;;;;;;;;;;17.09;80.43;100887.47;5005502;28;20180;-70
2022/09/11 01:32:58;;;;;;;;;;;;;;;17.11;81.42;100888.22;5007315;28;19957;-70
2022/09/11 01:35:27;;;;;;;;;;;;;;;17.17;81.28;100890.41;5006805;28;19921;-70
2022/09/11 01:37:56;;;;;;;;;;;;;;;17.11;81.56;100889.03;5006227;28;19944;-69
2022/09/11 01:40:24;;;;;;;;;;;;;;;17.16;81.58;100881.59;5005476;28;20036;-69
2022/09/11 01:42:54;;;;;;;;;;;;;;;17.31;80.55;100876.91;5004513;28;19952;-69
2022/09/11 01:45:22;;;;;;;;;;;;;;;17.40;79.56;100886.81;5004284;28;20373;-70
2022/09/11 01:47:52;;;;;;;;;;;;;;;17.21;79.93;100882.09;4998636;28;19921;-69
2022/09/11 01:50:19;;;;;;;;;;;;;;;17.29;79.64;100885.00;5005977;28;19980;-69
2022/09/11 01:52:49;;;;;;;;;;;;;;;17.58;78.48;100887.22;5006242;28;19928;-69
2022/09/11 01:55:17;;;;;;;;;;;;;;;17.44;77.96;100890.94;5002350;28;19983;-69
2022/09/11 01:57:46;;;;;;;;;;;;;;;17.10;79.45;100894.47;5007047;28;20025;-69
2022/09/11 02:00:14;;;;;;;;;;;;;;;16.95;80.58;100904.44;5005847;28;19955;-69
2022/09/11 02:02:43;;;;;;;;;;;;;;;16.81;81.28;100900.19;4996396;28;19957;-69
2022/09/11 02:05:14;;;;;;;;;;;;;;;17.26;79.94;100898.47;4981273;28;19969;-69
2022/09/11 02:07:42;;;;;;;;;;;;;;;17.28;78.87;100891.25;4974775;28;19929;-69
2022/09/11 02:10:13;;;;;;;;;;;;;;;17.33;78.47;100897.03;5004323;28;19921;-69
2022/09/11 02:12:43;;;;;;;;;;;;;;;17.30;78.93;100896.44;5006563;28;19972;-69
2022/09/11 02:15:12;;;;;;;;;;;;;;;17.09;79.67;100893.63;5006851;28;19943;-69
2022/09/11 02:17:44;;;;;;;;;;;;;;;17.26;78.92;100898.47;5005115;28;19922;-69
2022/09/11 02:20:11;;;;;;;;;;;;;;;17.29;78.59;100900.91;4987104;28;19922;-69
2022/09/11 02:22:37;;;;;;;;;;;;;;;17.19;78.41;100902.56;4988967;28;19922;-69
2022/09/11 02:25:04;;;;;;;;;;;;;;;17.00;79.54;100904.91;4992932;28;19921;-69
2022/09/11 02:27:32;;;;;;;;;;;;;;;17.08;79.44;100907.81;5005958;28;19928;-69
2022/09/11 02:29:59;;;;;;;;;;;;;;;17.10;79.44;100913.03;5008902;28;19933;-69
2022/09/11 02:32:25;;;;;;;;;;;;;;;16.72;80.37;100915.88;5001944;28;19945;-69
2022/09/11 02:34:54;;;;;;;;;;;;;;;16.78;80.76;100912.78;5007603;28;19980;-69
2022/09/11 02:37:25;;;;;;;;;;;;;;;16.82;80.64;100925.69;5008759;28;19921;-69
2022/09/11 02:40:00;;;;;;;;;;;;;;;16.62;82.55;100922.84;4998652;28;19972;-69
2022/09/11 02:42:34;;;;;;;;;;;;;;;16.59;82.53;100921.28;5000671;28;19922;-69
2022/09/11 02:45:04;;;;;;;;;;;;;;;16.49;81.84;100923.69;5009295;28;19921;-69
2022/09/11 02:47:39;;;;;;;;;;;;;;;16.39;82.60;100927.97;5009494;28;20393;-68
2022/09/11 02:50:09;;;;;;;;;;;;;;;16.53;82.22;100922.50;5009503;28;20373;-68
2022/09/11 02:52:41;;;;;;;;;;;;;;;16.73;81.12;100925.53;5008528;28;19957;-68
2022/09/11 02:55:11;;;;;;;;;;;;;;;16.50;81.89;100928.03;5005759;28;20608;-69
2022/09/11 02:57:41;;;;;;;;;;;;;;;16.50;81.10;100935.97;5007262;28;19929;-69
2022/09/11 03:00:09;;;;;;;;;;;;;;;16.34;82.09;100937.19;5008384;28;19921;-68
2022/09/11 03:02:38;;;;;;;;;;;;;;;16.44;82.41;100941.69;5008771;28;19980;-68
2022/09/11 03:05:05;;;;;;;;;;;;;;;16.25;84.49;100944.00;5009314;28;19928;-68
2022/09/11 03:07:33;;;;;;;;;;;;;;;16.36;84.96;100949.38;5008948;28;20381;-68
2022/09/11 03:09:59;;;;;;;;;;;;;;;16.46;86.35;100949.53;5007488;28;19921;-68
2022/09/11 03:12:27;;;;;;;;;;;;;;;16.44;86.69;100948.81;5009086;28;19965;-68
2022/09/11 03:14:53;;;;;;;;;;;;;;;16.15;89.19;100942.16;5003853;28;19922;-68
2022/09/11 03:17:20;;;;;;;;;;;;;;;16.27;89.76;100942.09;5009832;28;19922;-68
2022/09/11 03:19:47;;;;;;;;;;;;;;;16.39;89.89;100950.94;5007809;28;19921;-68
2022/09/11 03:22:13;;;;;;;;;;;;;;;16.20;91.14;100951.44;5008918;28;19972;-68
2022/09/11 03:24:41;;;;;;;;;;;;;;;16.31;91.47;100959.44;5009147;28;20266;-68
2022/09/11 03:27:07;;;;;;;;;;;;;;;16.29;91.51;100968.47;5002901;28;20023;-68
2022/09/11 03:29:33;;;;;;;;;;;;;;;15.93;93.71;100958.66;4998738;28;20382;-68
2022/09/11 03:32:00;;;;;;;;;;;;;;;16.08;94.25;100954.94;5008648;28;19956;-68
2022/09/11 03:34:26;;;;;;;;;;;;;;;16.34;92.10;100964.50;5008944;28;20015;-68
2022/09/11 03:36:52;;;;;;;;;;;;;;;16.21;92.52;100966.34;5007655;28;19975;-68
2022/09/11 03:39:18;;;;;;;;;;;;;;;16.32;92.70;100958.50;4997799;28;20382;-68
2022/09/11 03:41:46;;;;;;;;;;;;;;;16.37;91.77;100969.56;5008862;28;19971;-68
2022/09/11 03:44:12;;;;;;;;;;;;;;;16.41;91.51;100976.34;5007941;28;19956;-68
2022/09/11 03:46:38;;;;;;;;;;;;;;;16.34;91.83;100983.03;5009136;28;19922;-68
2022/09/11 03:49:05;;;;;;;;;;;;;;;16.32;92.20;100987.59;5007019;28;19971;-68
2022/09/11 03:51:31;;;;;;;;;;;;;;;16.36;92.16;100985.59;4998417;28;19921;-68
2022/09/11 03:53:59;;;;;;;;;;;;;;;16.28;92.26;100986.13;4989220;28;19965;-68
2022/09/11 03:56:25;;;;;;;;;;;;;;;16.23;93.01;100988.25;4995705;28;20369;-68
2022/09/11 03:58:56;;;;;;;;;;;;;;;16.35;92.29;100992.66;5006634;28;19964;-67
2022/09/11 04:01:23;;;;;;;;;;;;;;;16.37;92.25;100990.75;4992762;28;19921;-67
2022/09/11 04:03:49;;;;;;;;;;;;;;;16.43;91.51;100990.31;5008255;28;20360;-67
2022/09/11 04:06:16;;;;;;;;;;;;;;;16.70;90.59;101003.41;5007959;28;19927;-67
2022/09/11 04:08:42;;;;;;;;;;;;;;;16.54;91.38;100992.19;5006888;28;19922;-67
2022/09/11 04:11:10;;;;;;;;;;;;;;;16.41;91.88;100994.00;5008108;28;20014;-67
2022/09/11 04:13:38;;;;;;;;;;;;;;;16.01;94.83;100994.22;5007366;28;19928;-67
2022/09/11 04:16:06;;;;;;;;;;;;;;;16.32;93.80;100999.97;5001707;28;19979;-67
2022/09/11 04:18:34;;;;;;;;;;;;;;;16.35;93.79;100991.81;5007813;28;20648;-67
2022/09/11 04:21:03;;;;;;;;;;;;;;;16.29;93.50;100993.13;5007204;28;19936;-67
2022/09/11 04:23:29;;;;;;;;;;;;;;;16.41;93.24;100989.56;5007258;28;19976;-67
2022/09/11 04:25:55;;;;;;;;;;;;;;;16.54;92.04;100995.69;5007890;28;19995;-67
2022/09/11 04:28:22;;;;;;;;;;;;;;;16.82;91.11;101006.94;5007819;28;19929;-67
2022/09/11 04:30:49;;;;;;;;;;;;;;;16.40;92.80;101000.28;4987076;28;19968;-67
2022/09/11 04:33:16;;;;;;;;;;;;;;;16.40;93.07;101006.44;5002391;28;19922;-67
2022/09/11 04:35:42;;;;;;;;;;;;;;;16.45;92.81;101004.28;4990063;28;19984;-67
2022/09/11 04:38:09;;;;;;;;;;;;;;;16.31;94.79;101008.88;5006622;28;19952;-68
2022/09/11 04:40:35;;;;;;;;;;;;;;;16.43;94.32;101005.34;5007153;28;19925;-68
2022/09/11 04:43:02;;;;;;;;;;;;;;;16.52;94.33;101005.53;5006886;28;19921;-68
2022/09/11 04:45:29;;;;;;;;;;;;;;;16.79;92.44;101012.47;5006901;28;19971;-68
2022/09/11 04:47:56;;;;;;;;;;;;;;;16.54;93.42;101019.50;4995626;28;19932;-68
2022/09/11 04:50:23;;;;;;;;;;;;;;;16.75;92.47;101018.94;4986651;28;19957;-68
2022/09/11 04:52:50;;;;;;;;;;;;;;;16.72;92.38;101011.22;4988083;28;19922;-68
2022/09/11 04:55:16;;;;;;;;;;;;;;;16.41;93.31;101016.03;4989322;28;19972;-68
2022/09/11 04:57:42;;;;;;;;;;;;;;;16.45;93.45;101020.16;5004568;28;19976;-68
2022/09/11 05:00:10;;;;;;;;;;;;;;;16.58;92.05;101028.13;5007262;28;19921;-68
2022/09/11 05:02:36;;;;;;;;;;;;;;;16.42;92.89;101030.13;5002586;28;20009;-68
2022/09/11 05:05:02;;;;;;;;;;;;;;;16.55;92.10;101041.53;4987259;28;19944;-69
2022/09/11 05:07:30;;;;;;;;;;;;;;;16.67;92.50;101040.66;5001838;28;20373;-69
2022/09/11 05:09:57;;;;;;;;;;;;;;;16.65;91.93;101045.25;5007994;28;19921;-69
2022/09/11 05:12:23;;;;;;;;;;;;;;;16.69;91.98;101048.50;5007194;28;20292;-69
2022/09/11 05:14:50;;;;;;;;;;;;;;;16.79;91.40;101042.44;5005679;28;19964;-69
2022/09/11 05:17:16;;;;;;;;;;;;;;;16.84;90.43;101042.13;5006284;28;19925;-69
2022/09/11 05:19:43;;;;;;;;;;;;;;;16.92;89.71;101047.69;4995368;28;20345;-69
2022/09/11 05:22:09;;;;;;;;;;;;;;;17.03;89.20;101053.06;5006146;28;19937;-69
2022/09/11 05:24:37;;;;;;;;;;;;;;;17.02;88.90;101054.00;5008039;28;19952;-69
2022/09/11 05:27:05;;;;;;;;;;;;;;;17.15;87.80;101054.78;5005124;28;19952;-69
2022/09/11 05:29:31;;;;;;;;;;;;;;;17.07;88.45;101066.94;5006315;28;19929;-69
2022/09/11 05:31:58;;;;;;;;;;;;;;;16.83;90.02;101069.53;5006488;28;19929;-69
2022/09/11 05:34:27;;;;;;;;;;;;;;;16.77;90.36;101070.00;5005584;28;19929;-69
2022/09/11 05:36:56;;;;;;;;;;;;;;;16.39;91.60;101076.19;5005547;28;20377;-69
2022/09/11 05:39:22;;;;;;;;;;;;;;;16.64;90.39;101067.38;5006272;28;19953;-69
2022/09/11 05:41:51;;;;;;;;;;;;;;;16.64;90.47;101077.13;5006649;28;19921;-69
2022/09/11 05:44:17;;;;;;;;;;;;;;;17.01;89.51;101081.44;5006256;28;19925;-69
2022/09/11 05:46:44;;;;;;;;;;;;;;;16.98;89.62;101085.19;5007812;28;19991;-69
2022/09/11 05:49:10;;;;;;;;;;;;;;;17.19;88.80;101082.75;5005744;28;19975;-68
2022/09/11 05:51:36;;;;;;;;;;;;;;;17.33;87.98;101089.69;5006269;28;20396;-68
2022/09/11 05:54:03;;;;;;;;;;;;;;;17.45;87.41;101088.75;5006747;28;19925;-68
2022/09/11 05:56:29;;;;;;;;;;;;;;;17.62;86.50;101100.81;5006178;28;19925;-68
2022/09/11 05:58:57;;;;;;;;;;;;;;;17.77;85.32;101097.84;5005365;28;20008;-68
2022/09/11 06:01:25;;;;;;;;;;;;;;;17.34;86.90;101099.31;5010999;28;19922;-68
2022/09/11 06:03:51;;;;;;;;;;;;;;;17.18;88.62;101102.28;5009116;28;20421;-68
2022/09/11 06:06:18;;;;;;;;;;;;;;;17.26;88.55;101107.84;5009584;28;19971;-67
2022/09/11 06:08:46;;;;;;;;;;;;;;;17.59;87.16;101109.81;5010054;28;19968;-67
2022/09/11 06:11:13;;;;;;;;;;;;;;;17.59;86.59;101114.31;5005531;28;19952;-67
2022/09/11 06:13:40;;;;;;;;;;;;;;;17.64;86.78;101112.13;4986229;28;19926;-67
2022/09/11 06:16:08;;;;;;;;;;;;;;;17.62;86.54;101116.72;4987116;28;19921;-68
2022/09/11 06:18:34;;;;;;;;;;;;;;;17.75;86.04;101114.81;5003570;28;19922;-68
2022/09/11 06:21:01;;;;;;;;;;;;;;;17.79;85.47;101108.31;4988955;28;19980;-68
2022/09/11 06:23:28;;;;;;;;;;;;;;;17.75;85.67;101115.66;4991383;28;19926;-68
2022/09/11 06:26:01;;;;;;;;;;;;;;;17.63;86.23;101119.22;4989359;28;19921;-67
2022/09/11 06:28:28;;;;;;;;;;;;;;;17.59;86.04;101117.78;4989122;28;20009;-67
2022/09/11 06:30:54;;;;;;;;;;;;;;;17.59;86.70;101122.25;5005568;28;20324;-67
2022/09/11 06:33:21;;;;;;;;;;;;;;;17.43;87.17;101122.50;5000771;28;20018;-67
2022/09/11 06:35:55;;;;;;;;;;;;;;;17.56;87.74;101133.03;5008032;28;19965;-67
2022/09/11 06:38:21;;;;;;;;;;;;;;;17.56;87.41;101130.38;5005332;28;19929;-68
2022/09/11 06:40:48;;;;;;;;;;;;;;;17.81;86.33;101139.06;4990221;28;19921;-68
2022/09/11 06:43:14;;;;;;;;;;;;;;;18.05;84.87;101138.19;4998287;28;19992;-68
2022/09/11 06:45:40;;;;;;;;;;;;;;;17.80;86.48;101140.06;5001490;28;20297;-68
2022/09/11 06:48:07;;;;;;;;;;;;;;;17.97;85.83;101144.06;5007179;28;19921;-68
2022/09/11 06:50:39;;;;;;;;;;;;;;;18.04;84.96;101147.09;5008149;28;19949;-68
2022/09/11 06:53:05;;;;;;;;;;;;;;;17.87;85.41;101149.25;5008708;28;20016;-68
2022/09/11 06:55:31;;;;;;;;;;;;;;;17.89;85.08;101149.09;4998380;28;19928;-68
2022/09/11 06:57:57;;;;;;;;;;;;;;;18.07;85.31;101146.88;5000548;28;19922;-68
2022/09/11 07:00:24;;;;;;;;;;;;;;;17.90;85.44;101149.00;5009324;28;19921;-68
2022/09/11 07:02:51;;;;;;;;;;;;;;;17.99;85.04;101152.78;4996727;28;19921;-68
2022/09/11 07:05:18;;;;;;;;;;;;;;;18.07;84.94;101147.69;4988929;28;19961;-68
2022/09/11 07:07:47;;;;;;;;;;;;;;;18.12;84.56;101153.50;4981927;28;20424;-69
2022/09/11 07:10:13;;;;;;;;;;;;;;;17.95;85.14;101153.97;5002408;28;20340;-67
2022/09/11 07:12:40;;;;;;;;;;;;;;;17.82;85.73;101151.38;5002083;28;19957;-67
2022/09/11 07:15:07;;;;;;;;;;;;;;;17.92;85.59;101149.72;4995387;28;19997;-67
2022/09/11 07:17:33;;;;;;;;;;;;;;;17.89;85.96;101152.59;4996337;28;19930;-67
2022/09/11 07:19:59;;;;;;;;;;;;;;;17.93;85.96;101158.53;4994911;28;19960;-67
2022/09/11 07:22:26;;;;;;;;;;;;;;;17.64;86.32;101149.25;5000352;28;19957;-66
2022/09/11 07:24:53;;;;;;;;;;;;;;;17.40;87.89;101160.72;5006640;28;20374;-66
2022/09/11 07:27:20;;;;;;;;;;;;;;;17.24;88.23;101160.13;5007009;28;20420;-67
2022/09/11 07:29:46;;;;;;;;;;;;;;;17.31;87.85;101157.88;5007381;28;19952;-66
2022/09/11 07:32:12;;;;;;;;;;;;;;;17.47;87.02;101163.75;5006437;28;19979;-66
2022/09/11 07:34:38;;;;;;;;;;;;;;;17.44;87.68;101170.09;5007267;28;20451;-66
2022/09/11 07:37:05;;;;;;;;;;;;;;;17.76;86.11;101173.06;5000354;28;19972;-66
2022/09/11 07:39:31;;;;;;;;;;;;;;;18.11;84.07;101181.00;5002543;28;20010;-66
2022/09/11 07:41:58;;;;;;;;;;;;;;;18.25;83.40;101169.34;4997309;28;19921;-67
2022/09/11 07:44:25;;;;;;;;;;;;;;;18.42;83.20;101175.06;5003562;28;19921;-67
2022/09/11 07:46:51;;;;;;;;;;;;;;;18.54;82.77;101177.75;5002609;28;19925;-67
2022/09/11 07:49:18;;;;;;;;;;;;;;;18.76;82.44;101178.59;4992133;28;19922;-67
2022/09/11 07:51:44;;;;;;;;;;;;;;;18.68;83.20;101170.41;5004732;28;19976;-67
2022/09/11 07:54:10;;;;;;;;;;;;;;;18.78;82.52;101171.34;5005732;28;20549;-67
2022/09/11 07:56:36;;;;;;;;;;;;;;;18.83;81.69;101169.19;5007857;28;20389;-67
2022/09/11 07:59:06;;;;;;;;;;;;;;;19.07;80.80;101171.69;4991740;28;19922;-67
2022/09/11 08:01:32;;;;;;;;;;;;;;;18.99;80.43;101168.81;5006952;28;19953;-67
2022/09/11 08:03:59;;;;;;;;;;;;;;;19.22;80.45;101173.09;4994554;28;20031;-67
2022/09/11 08:06:27;;;;;;;;;;;;;;;19.39;78.90;101174.41;5007234;28;19940;-67
2022/09/11 08:08:53;;;;;;;;;;;;;;;19.39;76.70;101175.25;5005928;28;19996;-67
2022/09/11 08:11:20;;;;;;;;;;;;;;;19.48;76.11;101181.66;5006078;28;19922;-67
2022/09/11 08:13:49;;;;;;;;;;;;;;;19.68;76.21;101185.34;5005350;28;19926;-67
2022/09/11 08:16:18;;;;;;;;;;;;;;;19.80;76.52;101181.69;5004549;28;19925;-68
2022/09/11 08:18:44;;;;;;;;;;;;;;;19.85;75.56;101179.47;5005642;28;19928;-67
2022/09/11 08:21:11;;;;;;;;;;;;;;;20.46;74.19;101184.97;5005717;28;20405;-67
2022/09/11 08:23:40;;;;;;;;;;;;;;;20.63;72.04;101197.66;4987817;28;20346;-68
2022/09/11 08:26:07;;;;;;;;;;;;;;;20.99;71.64;101194.44;4997368;28;19926;-68
2022/09/11 08:28:33;;;;;;;;;;;;;;;21.16;70.92;101190.34;4987631;28;19922;-67
2022/09/11 08:31:00;;;;;;;;;;;;;;;21.23;70.35;101196.81;4990831;28;19961;-67
2022/09/11 08:33:28;;;;;;;;;;;;;;;21.32;69.05;101201.34;4985842;28;19926;-68
2022/09/11 08:35:54;;;;;;;;;;;;;;;21.54;67.51;101200.25;4989496;28;19921;-68
2022/09/11 08:38:20;;;;;;;;;;;;;;;22.24;68.50;101202.66;5006793;28;20295;-67
2022/09/11 08:40:47;;;;;;;;;;;;;;;22.71;64.74;101198.22;5005307;28;19971;-67
2022/09/11 08:43:18;;;;;;;;;;;;;;;23.21;64.74;101194.16;5005569;28;19921;-67
2022/09/11 08:45:44;;;;;;;;;;;;;;;23.42;62.69;101207.34;5000220;28;19928;-67
2022/09/11 08:48:12;;;;;;;;;;;;;;;23.04;59.08;101199.47;5001992;28;20447;-67
2022/09/11 08:50:40;;;;;;;;;;;;;;;22.92;62.51;101204.16;4987505;28;20520;-67
2022/09/11 08:53:14;;;;;;;;;;;;;;;22.78;62.54;101212.69;5001653;28;19953;-67
2022/09/11 08:55:42;;;;;;;;;;;;;;;22.59;62.79;101215.38;5006027;28;19961;-67
2022/09/11 08:58:14;;;;;;;;;;;;;;;22.16;62.99;101219.41;5003366;28;19921;-67
2022/09/11 09:00:43;;;;;;;;;;;;;;;21.91;63.81;101219.97;5005591;28;19921;-67
2022/09/11 09:03:29;;;;;;;;;;;;;;;21.42;64.76;101228.03;5006411;28;20282;-68
2022/09/11 09:05:59;;;;;;;;;;;;;;;21.22;66.78;101229.78;4994673;28;20416;-69
2022/09/11 09:08:40;;;;;;;;;;;;;;;21.35;66.79;101225.91;5003355;28;19921;-69
2022/09/11 09:11:13;;;;;;;;;;;;;;;20.99;68.08;101231.78;5004968;28;19936;-69
2022/09/11 09:13:49;;;;;;;;;;;;;;;20.94;68.09;101241.16;4999022;28;19922;-69
2022/09/11 09:16:21;;;;;;;;;;;;;;;20.89;69.20;101238.91;5000514;28;19998;-68
2022/09/11 09:18:50;;;;;;;;;;;;;;;20.79;68.53;101235.34;4986536;28;19960;-68
2022/09/11 09:21:20;;;;;;;;;;;;;;;21.00;68.20;101244.13;4988757;28;19922;-69
2022/09/11 09:23:49;;;;;;;;;;;;;;;20.84;69.38;101244.63;4981036;28;19976;-69
2022/09/11 09:26:17;;;;;;;;;;;;;;;20.83;68.44;101248.28;4977492;28;19999;-69
2022/09/11 09:28:45;;;;;;;;;;;;;;;21.10;68.86;101244.19;4974031;28;19922;-69
2022/09/11 09:31:13;;;;;;;;;;;;;;;21.19;67.03;101249.59;4980356;28;19922;-68
2022/09/11 09:33:43;;;;;;;;;;;;;;;21.42;65.63;101249.38;4984883;28;20388;-68
2022/09/11 09:36:13;;;;;;;;;;;;;;;21.41;66.82;101247.69;5001816;28;19952;-68
2022/09/11 09:38:40;;;;;;;;;;;;;;;21.47;67.61;101244.47;5006744;28;20024;-68
2022/09/11 09:41:16;;;;;;;;;;;;;;;21.42;67.73;101249.38;5003529;28;19921;-68
2022/09/11 09:43:48;;;;;;;;;;;;;;;21.19;66.65;101252.25;4989727;28;19953;-68
2022/09/11 09:46:19;;;;;;;;;;;;;;;21.06;66.89;101259.63;4996687;28;20373;-68
2022/09/11 09:48:45;;;;;;;;;;;;;;;21.18;66.16;101257.69;5005670;28;20384;-68
2022/09/11 09:51:12;;;;;;;;;;;;;;;21.30;65.77;101252.16;5003977;28;19952;-68
2022/09/11 09:53:40;;;;;;;;;;;;;;;21.13;66.59;101260.81;5002488;28;20369;-68
2022/09/11 09:56:12;;;;;;;;;;;;;;;20.87;66.46;101268.38;5004094;28;19921;-68
2022/09/11 09:58:41;;;;;;;;;;;;;;;20.88;66.20;101266.53;5004383;28;19976;-68
2022/09/11 10:01:31;;;;;;;;;;;;;;;20.80;66.46;101266.38;5002498;28;19967;-68
2022/09/11 10:04:09;;;;;;;;;;;;;;;20.72;66.92;101271.50;5005173;28;20477;-68
2022/09/11 10:06:36;;;;;;;;;;;;;;;20.49;67.75;101265.47;5004954;28;19925;-68
2022/09/11 10:09:02;;;;;;;;;;;;;;;21.18;66.00;101279.88;5003607;28;19987;-68
2022/09/11 10:11:28;;;;;;;;;;;;;;;21.36;65.10;101275.59;5004184;28;19957;-68
2022/09/11 10:13:56;;;;;;;;;;;;;;;21.36;65.42;101267.59;4999258;28;19921;-68
2022/09/11 10:16:23;;;;;;;;;;;;;;;21.29;65.23;101274.47;4999341;28;19921;-68
2022/09/11 10:18:50;;;;;;;;;;;;;;;21.27;66.06;101265.75;4982853;28;19925;-68
2022/09/11 10:21:28;;;;;;;;;;;;;;;21.42;66.09;101260.91;4985840;28;20325;-68
2022/09/11 10:23:55;;;;;;;;;;;;;;;21.54;66.23;101257.13;4985879;28;19922;-68
2022/09/11 10:26:24;;;;;;;;;;;;;;;21.36;65.70;101267.59;4984123;28;19957;-68
2022/09/11 10:28:51;;;;;;;;;;;;;;;21.83;64.50;101254.50;4984740;28;19922;-68
2022/09/11 10:31:17;;;;;;;;;;;;;;;22.63;64.68;101256.88;4985918;28;19925;-68
2022/09/11 10:33:48;;;;;;;;;;;;;;;23.21;59.84;101258.38;4998632;28;19922;-68
2022/09/11 10:36:21;;;;;;;;;;;;;;;23.72;58.58;101265.03;5003565;28;20342;-68
2022/09/11 10:38:49;;;;;;;;;;;;;;;23.96;57.67;101262.59;4990750;28;19921;-68
2022/09/11 10:41:18;;;;;;;;;;;;;;;24.18;57.59;101264.00;5005533;28;19921;-68
2022/09/11 10:43:47;;;;;;;;;;;;;;;24.28;54.47;101263.94;5003818;28;19921;-68
2022/09/11 10:46:24;;;;;;;;;;;;;;;24.18;54.96;101266.69;5004557;28;20459;-69
2022/09/11 10:48:54;;;;;;;;;;;;;;;24.58;57.00;101266.16;4988806;28;19922;-67
2022/09/11 10:51:20;;;;;;;;;;;;;;;25.31;56.57;101266.59;4987688;28;19921;-68
2022/09/11 10:53:53;;;;;;;;;;;;;;;25.89;54.89;101264.78;4989050;28;19957;-68
2022/09/11 10:56:19;;;;;;;;;;;;;;;25.86;49.76;101267.81;4990400;28;20294;-67
2022/09/11 10:58:48;;;;;;;;;;;;;;;26.01;49.55;101265.31;5007397;28;19926;-68
2022/09/11 11:01:14;;;;;;;;;;;;;;;25.74;51.04;101258.38;5010382;28;19929;-68
2022/09/11 11:03:40;;;;;;;;;;;;;;;25.90;51.01;101255.72;5008226;28;19922;-68
2022/09/11 11:06:13;;;;;;;;;;;;;;;26.00;49.87;101259.09;5001280;28;20475;-68
2022/09/11 11:08:53;;;;;;;;;;;;;;;25.90;48.35;101258.41;5007560;28;19932;-68
2022/09/11 11:11:31;;;;;;;;;;;;;;;25.69;50.42;101255.34;5006489;28;20301;-68
2022/09/11 11:14:07;;;;;;;;;;;;;;;25.99;50.03;101260.09;5007171;28;19927;-68
2022/09/11 11:16:42;;;;;;;;;;;;;;;25.52;49.80;101270.56;5007006;28;20016;-68
2022/09/11 11:19:18;;;;;;;;;;;;;;;25.11;51.54;101268.69;5007020;28;19975;-67
2022/09/11 11:21:51;;;;;;;;;;;;;;;24.96;54.07;101271.13;5007569;28;19922;-67
2022/09/11 11:24:31;;;;;;;;;;;;;;;25.30;54.02;101264.91;5007851;28;20370;-67
2022/09/11 11:27:08;;;;;;;;;;;;;;;25.92;50.07;101255.53;5007604;28;19921;-68
2022/09/11 11:29:42;;;;;;;;;;;;;;;25.83;48.56;101260.06;4988119;28;19921;-69
2022/09/11 11:32:11;;;;;;;;;;;;;;;26.32;50.48;101250.22;4988624;28;19922;-68
2022/09/11 11:34:50;;;;;;;;;;;;;;;26.22;50.92;101256.78;5000834;28;19928;-69
2022/09/11 11:37:18;;;;;;;;;;;;;;;26.19;48.41;101262.50;5006592;28;20404;-69
2022/09/11 11:39:49;;;;;;;;;;;;;;;25.80;49.34;101256.88;5006442;28;19921;-69
2022/09/11 11:42:20;;;;;;;;;;;;;;;25.41;51.01;101257.41;5007113;28;20693;-69
2022/09/11 11:44:50;;;;;;;;;;;;;;;25.31;50.84;101261.25;5002868;28;20019;-68
2022/09/11 11:47:18;;;;;;;;;;;;;;;24.66;52.91;101266.22;5003643;28;20293;-67
2022/09/11 11:49:52;;;;;;;;;;;;;;;24.41;53.87;101262.53;4988085;28;19921;-67
2022/09/11 11:52:23;;;;;;;;;;;;;;;24.25;54.63;101270.41;4986259;28;19922;-66
2022/09/11 11:54:53;;;;;;;;;;;;;;;23.79;55.32;101262.59;4988360;28;19991;-67
2022/09/11 11:57:23;;;;;;;;;;;;;;;23.78;55.50;101261.75;4987104;28;19984;-67
2022/09/11 11:59:54;;;;;;;;;;;;;;;23.60;57.25;101263.56;4989174;28;19957;-67
2022/09/11 12:02:22;;;;;;;;;;;;;;;23.56;57.26;101256.81;4986782;28;19925;-67
2022/09/11 12:04:52;;;;;;;;;;;;;;;23.72;56.71;101262.38;4987855;28;19965;-67
2022/09/11 12:07:21;;;;;;;;;;;;;;;24.45;60.15;101265.72;5000947;28;19961;-67
2022/09/11 12:09:48;;;;;;;;;;;;;;;24.65;53.92;101260.00;5006756;28;20317;-68
2022/09/11 12:12:16;;;;;;;;;;;;;;;24.69;52.62;101255.16;5005471;28;19921;-69
2022/09/11 12:14:50;;;;;;;;;;;;;;;24.73;52.06;101261.91;4999447;28;19984;-69
2022/09/11 12:17:18;;;;;;;;;;;;;;;24.64;51.95;101262.84;5001475;28;20007;-69
2022/09/11 12:20:00;;;;;;;;;;;;;;;24.49;51.28;101259.06;5004846;28;19973;-68
2022/09/11 12:22:33;;;;;;;;;;;;;;;24.77;52.65;101260.59;5002905;28;19922;-68
2022/09/11 12:24:59;;;;;;;;;;;;;;;24.44;51.77;101258.69;4986252;28;19957;-67
2022/09/11 12:27:33;;;;;;;;;;;;;;;24.49;52.90;101261.75;4986086;28;19921;-68
2022/09/11 12:30:07;;;;;;;;;;;;;;;24.27;53.83;101246.16;4987221;28;19973;-68
2022/09/11 12:32:41;;;;;;;;;;;;;;;24.13;55.30;101242.16;4988345;28;20333;-68
2022/09/11 12:35:23;;;;;;;;;;;;;;;24.49;54.32;101253.69;4992717;28;20363;-69
2022/09/11 12:37:53;;;;;;;;;;;;;;;24.48;53.71;101255.53;5006601;28;20435;-68
2022/09/11 12:40:23;;;;;;;;;;;;;;;24.40;52.14;101250.09;5006217;28;19964;-69
2022/09/11 12:42:57;;;;;;;;;;;;;;;24.19;52.99;101252.28;5004120;28;19928;-69